地図

経路データ

SID SEASON NUMBER BASIN SUBBASIN NAME ISO_TIME NATURE LAT LON WMO_WIND WMO_PRES WMO_AGENCY TRACK_TYPE DIST2LAND LANDFALL IFLAG USA_AGENCY USA_ATCF_ID USA_LAT USA_LON USA_RECORD USA_STATUS USA_WIND USA_PRES USA_SSHS USA_R34_NE USA_R34_SE USA_R34_SW USA_R34_NW USA_R50_NE USA_R50_SE USA_R50_SW USA_R50_NW USA_R64_NE USA_R64_SE USA_R64_SW USA_R64_NW USA_POCI USA_ROCI USA_RMW USA_EYE TOKYO_LAT TOKYO_LON TOKYO_GRADE TOKYO_WIND TOKYO_PRES TOKYO_R50_DIR TOKYO_R50_LONG TOKYO_R50_SHORT TOKYO_R30_DIR TOKYO_R30_LONG TOKYO_R30_SHORT TOKYO_LAND CMA_LAT CMA_LON CMA_CAT CMA_WIND CMA_PRES HKO_LAT HKO_LON HKO_CAT HKO_WIND HKO_PRES NEWDELHI_LAT NEWDELHI_LON NEWDELHI_GRADE NEWDELHI_WIND NEWDELHI_PRES NEWDELHI_CI NEWDELHI_DP NEWDELHI_POCI REUNION_LAT REUNION_LON REUNION_TYPE REUNION_WIND REUNION_PRES REUNION_TNUM REUNION_CI REUNION_RMW REUNION_R34_NE REUNION_R34_SE REUNION_R34_SW REUNION_R34_NW REUNION_R50_NE REUNION_R50_SE REUNION_R50_SW REUNION_R50_NW REUNION_R64_NE REUNION_R64_SE REUNION_R64_SW REUNION_R64_NW BOM_LAT BOM_LON BOM_TYPE BOM_WIND BOM_PRES BOM_TNUM BOM_CI BOM_RMW BOM_R34_NE BOM_R34_SE BOM_R34_SW BOM_R34_NW BOM_R50_NE BOM_R50_SE BOM_R50_SW BOM_R50_NW BOM_R64_NE BOM_R64_SE BOM_R64_SW BOM_R64_NW BOM_ROCI BOM_POCI BOM_EYE BOM_POS_METHOD BOM_PRES_METHOD NADI_LAT NADI_LON NADI_CAT NADI_WIND NADI_PRES WELLINGTON_LAT WELLINGTON_LON WELLINGTON_WIND WELLINGTON_PRES DS824_LAT DS824_LON DS824_STAGE DS824_WIND DS824_PRES TD9636_LAT TD9636_LON TD9636_STAGE TD9636_WIND TD9636_PRES TD9635_LAT TD9635_LON TD9635_WIND TD9635_PRES TD9635_ROCI NEUMANN_LAT NEUMANN_LON NEUMANN_CLASS NEUMANN_WIND NEUMANN_PRES MLC_LAT MLC_LON MLC_CLASS MLC_WIND MLC_PRES USA_GUST BOM_GUST BOM_GUST_PER REUNION_GUST REUNION_GUST_PER USA_SEAHGT USA_SEARAD_NE USA_SEARAD_SE USA_SEARAD_SW USA_SEARAD_NW STORM_SPEED STORM_DIR
2000019S11127 2000 4 SI WA NOT_NAMED 2000-01-18 18:00:00 TS -11.1000 126.900 main 239 237 O___________O_ jtwc_sh SH062000 -11.1000 126.900 25 -1 -11.1000 126.900 TC 25 8 247
2000019S11127 2000 4 SI WA NOT_NAMED 2000-01-18 21:00:00 TS -11.2576 126.518 main 250 226 P___________P_ SH062000 -11.2576 126.518 25 -1 -11.2576 126.518 TC 25 8 249
2000019S11127 2000 4 SI WA NOT_NAMED 2000-01-19 00:00:00 TS -11.4000 126.100 main 226 204 O___________O_ jtwc_sh SH062000 -11.4000 126.100 25 -1 -11.4000 126.100 TC 25 9 253
2000019S11127 2000 4 SI WA NOT_NAMED 2000-01-19 03:00:00 TS -11.5274 125.622 main 197 184 P___________P_ SH062000 -11.5274 125.622 25 -1 -11.5274 125.622 TC 25 10 253
2000019S11127 2000 4 SI WA NOT_NAMED 2000-01-19 06:00:00 TS -11.7000 125.100 main 190 187 O___________O_ jtwc_sh SH062000 -11.7000 125.100 25 -1 -11.7000 125.100 TC 25 12 246
2000019S11127 2000 4 SI WA NOT_NAMED 2000-01-19 09:00:00 TS -11.9925 124.550 main 199 194 P___________P_ SH062000 -11.9925 124.550 25 -1 -11.9925 124.550 TC 25 12 241
2000019S11127 2000 4 SI WA NOT_NAMED 2000-01-19 12:00:00 TS -12.3000 124.000 main 213 213 O___________O_ jtwc_sh SH062000 -12.3000 124.000 25 -1 -12.3000 124.000 TC 25 11 244
2000019S11127 2000 4 SI WA NOT_NAMED 2000-01-19 15:00:00 TS -12.4922 123.522 main 235 235 P___________P_ SH062000 -12.4922 123.522 25 -1 -12.4922 123.522 TC 25 11 248
2000019S11127 2000 4 SI WA NOT_NAMED 2000-01-19 18:00:00 TS -12.7000 123.000 main 263 263 O___________O_ jtwc_sh SH062000 -12.7000 123.000 25 -1 -12.7000 123.000 TC 25 13 246
2000019S11127 2000 4 SI WA NOT_NAMED 2000-01-19 21:00:00 TS -13.0125 122.330 main 319 319 P___________P_ SH062000 -13.0125 122.330 25 -1 -13.0125 122.330 TC 25 15 243
2000019S11127 2000 4 SI WA NOT_NAMED 2000-01-20 00:00:00 TS -13.4000 121.600 main 367 362 O___________O_ jtwc_sh SH062000 -13.4000 121.600 25 -1 -13.4000 121.600 TC 25 16 239
2000019S11127 2000 4 SI WA NOT_NAMED 2000-01-20 03:00:00 TS -13.8271 120.922 main 370 361 P___________P_ SH062000 -13.8271 120.922 25 -1 -13.8271 120.922 TC 25 16 236
2000019S11127 2000 4 SI WA NOT_NAMED 2000-01-20 06:00:00 TS -14.3000 120.200 main 379 379 O___________O_ jtwc_sh SH062000 -14.3000 120.200 25 -1 -14.3000 120.200 TC 25 18 237
2000019S11127 2000 4 SI WA NOT_NAMED 2000-01-20 09:00:00 TS -14.8152 119.350 main 403 403 P___________P_ SH062000 -14.8152 119.350 25 -1 -14.8152 119.350 TC 25 19 239
2000019S11127 2000 4 SI WA NOT_NAMED 2000-01-20 12:00:00 TS -15.3000 118.500 main 453 453 O___________O_ jtwc_sh SH062000 -15.3000 118.500 25 -1 -15.3000 118.500 TC 25 18 241
2000019S11127 2000 4 SI WA NOT_NAMED 2000-01-20 15:00:00 TS -15.6949 117.725 main 512 500 P___________P_ SH062000 -15.6949 117.725 25 -1 -15.6949 117.725 TC 25 15 243
2000019S11127 2000 4 SI WA NOT_NAMED 2000-01-20 18:00:00 TS -16.0000 117.100 main 503 489 O___________O_ jtwc_sh SH062000 -16.0000 117.100 25 -1 -16.0000 117.100 TC 25 11 242
2000019S11127 2000 4 SI WA NOT_NAMED 2000-01-20 21:00:00 TS -16.2146 116.690 main 492 470 P___________P_ SH062000 -16.2146 116.690 27 -1 -16.2146 116.690 TC 27 8 239
2000019S11127 2000 4 SI WA NOT_NAMED 2000-01-21 00:00:00 TS -16.4000 116.400 main 470 450 O___________O_ jtwc_sh SH062000 -16.4000 116.400 30 -1 -16.4000 116.400 TC 30 7 235
2000019S11127 2000 4 SI WA NOT_NAMED 2000-01-21 03:00:00 TS -16.6350 116.070 main 451 424 P___________P_ SH062000 -16.6350 116.070 30 -1 -16.6350 116.070 TC 30 8 229
2000019S11127 2000 4 SI WA NOT_NAMED 2000-01-21 06:00:00 TS -16.9000 115.800 main 424 397 O___________O_ jtwc_sh SH062000 -16.9000 115.800 30 -1 -16.9000 115.800 TC 30 7 218
2000019S11127 2000 4 SI WA NOT_NAMED 2000-01-21 09:00:00 TS -17.2075 115.605 main 397 369 P___________P_ SH062000 -17.2075 115.605 30 -1 -17.2075 115.605 TC 30 7 205
2000019S11127 2000 4 SI WA NOT_NAMED 2000-01-21 12:00:00 TS -17.5000 115.500 main 369 348 O___________O_ jtwc_sh SH062000 -17.5000 115.500 30 -1 -17.5000 115.500 TC 30 5 194
2000019S11127 2000 4 SI WA NOT_NAMED 2000-01-21 15:00:00 TS -17.7000 115.477 main 348 327 P___________P_ SH062000 -17.7000 115.477 30 -1 -17.7000 115.477 TC 30 4 0
2000019S11127 2000 4 SI WA NOT_NAMED 2000-01-21 18:00:00 TS -17.9000 115.500 main 327 296 O___________O_ jtwc_sh SH062000 -17.9000 115.500 30 -1 -17.9000 115.500 TC 30 5 178
2000019S11127 2000 4 SI WA NOT_NAMED 2000-01-21 21:00:00 TS -18.2000 115.493 main 296 266 P___________P_ SH062000 -18.2000 115.493 30 -1 -18.2000 115.493 TC 30 6 179
2000019S11127 2000 4 SI WA NOT_NAMED 2000-01-22 00:00:00 TS -18.5000 115.500 main 266 246 O___________O_ jtwc_sh SH062000 -18.5000 115.500 30 -1 -18.5000 115.500 TC 30 5 0
2000019S11127 2000 4 SI WA NOT_NAMED 2000-01-22 03:00:00 TS -18.7224 115.513 main 246 222 P___________P_ SH062000 -18.7224 115.513 30 -1 -18.7224 115.513 TC 30 4 167
2000019S11127 2000 4 SI WA NOT_NAMED 2000-01-22 06:00:00 TS -18.9000 115.600 main 222 202 O___________O_ jtwc_sh SH062000 -18.9000 115.600 30 -1 -18.9000 115.600 TC 30 4 138
2000019S11127 2000 4 SI WA NOT_NAMED 2000-01-22 09:00:00 TS -19.0274 115.798 main 202 168 P___________P_ SH062000 -19.0274 115.798 30 -1 -19.0274 115.798 TC 30 6 122
2000019S11127 2000 4 SI WA NOT_NAMED 2000-01-22 12:00:00 TS -19.2000 116.100 main 168 124 O___________O_ jtwc_sh SH062000 -19.2000 116.100 30 -1 -19.2000 116.100 TC 30 8 127
2000019S11127 2000 4 SI WA NOT_NAMED 2000-01-22 15:00:00 TS -19.5125 116.477 main 124 78 P___________P_ SH062000 -19.5125 116.477 30 -1 -19.5125 116.477 TC 30 10 133
2000019S11127 2000 4 SI WA NOT_NAMED 2000-01-22 18:00:00 TS -19.9000 116.900 main 78 45 O___________O_ jtwc_sh SH062000 -19.9000 116.900 30 -1 -19.9000 116.900 TC 30 11 135
2000019S11127 2000 4 SI WA NOT_NAMED 2000-01-22 21:00:00 TS -20.2924 117.300 main 45 10 P___________P_ SH062000 -20.2924 117.300 27 -1 -20.2924 117.300 TC 27 11 137
2000019S11127 2000 4 SI WA NOT_NAMED 2000-01-23 00:00:00 TS -20.7000 117.700 main 10 0 O___________O_ jtwc_sh SH062000 -20.7000 117.700 25 -1 -20.7000 117.700 TC 25 11 137
2000019S11127 2000 4 SI WA NOT_NAMED 2000-01-23 03:00:00 TS -21.1027 118.100 main 0 0 P___________P_ SH062000 -21.1027 118.100 22 -1 -21.1027 118.100 TC 22 11 137
2000019S11127 2000 4 SI WA NOT_NAMED 2000-01-23 06:00:00 TS -21.5000 118.500 main 0 O___________O_ jtwc_sh SH062000 -21.5000 118.500 20 -1 -21.5000 118.500 TC 20 11 137

IBTrACS Databaseについて

本データベースは、米国NOAAが公開する1842年以降の世界の熱帯低気圧のベストトラックデータアーカイブInternational Best Track Archive for Climate Stewardship (IBTrACS)を、ウェブで閲覧しやすい形式に変換したものです。

最終更新日:2021-10-25